sensor_id;sensor_type;location;lat;lon;timestamp;P1;durP1;ratioP1;P2;durP2;ratioP2
15230;SDS011;32569;51.762;8.564;2023-08-07T00:01:04;3.37;;;2.83;;
15230;SDS011;32569;51.762;8.564;2023-08-07T00:03:31;4.57;;;3.50;;
15230;SDS011;32569;51.762;8.564;2023-08-07T00:05:57;4.13;;;3.20;;
15230;SDS011;32569;51.762;8.564;2023-08-07T00:08:24;4.10;;;3.23;;
15230;SDS011;32569;51.762;8.564;2023-08-07T00:10:52;8.37;;;3.43;;
15230;SDS011;32569;51.762;8.564;2023-08-07T00:13:19;6.37;;;3.60;;
15230;SDS011;32569;51.762;8.564;2023-08-07T00:15:45;3.80;;;3.50;;
15230;SDS011;32569;51.762;8.564;2023-08-07T00:18:15;3.90;;;3.50;;
15230;SDS011;32569;51.762;8.564;2023-08-07T00:20:42;4.73;;;3.40;;
15230;SDS011;32569;51.762;8.564;2023-08-07T00:23:08;4.47;;;3.20;;
15230;SDS011;32569;51.762;8.564;2023-08-07T00:25:35;4.67;;;3.17;;
15230;SDS011;32569;51.762;8.564;2023-08-07T00:28:03;5.37;;;3.20;;
15230;SDS011;32569;51.762;8.564;2023-08-07T00:30:30;5.00;;;3.23;;
15230;SDS011;32569;51.762;8.564;2023-08-07T00:32:57;4.73;;;3.20;;
15230;SDS011;32569;51.762;8.564;2023-08-07T00:35:23;3.20;;;2.90;;
15230;SDS011;32569;51.762;8.564;2023-08-07T00:37:50;4.07;;;3.50;;
15230;SDS011;32569;51.762;8.564;2023-08-07T00:40:17;7.70;;;3.60;;
15230;SDS011;32569;51.762;8.564;2023-08-07T00:42:43;4.00;;;2.80;;
15230;SDS011;32569;51.762;8.564;2023-08-07T00:45:11;4.77;;;3.37;;
15230;SDS011;32569;51.762;8.564;2023-08-07T00:47:42;3.30;;;2.90;;
15230;SDS011;32569;51.762;8.564;2023-08-07T00:50:09;5.87;;;3.60;;
15230;SDS011;32569;51.762;8.564;2023-08-07T00:52:36;4.57;;;3.37;;
15230;SDS011;32569;51.762;8.564;2023-08-07T00:55:03;3.67;;;3.37;;
15230;SDS011;32569;51.762;8.564;2023-08-07T00:57:31;4.30;;;3.30;;
15230;SDS011;32569;51.762;8.564;2023-08-07T00:59:58;5.87;;;3.50;;
15230;SDS011;32569;51.762;8.564;2023-08-07T01:02:27;3.90;;;3.50;;
15230;SDS011;32569;51.762;8.564;2023-08-07T01:04:54;3.83;;;3.20;;
15230;SDS011;32569;51.762;8.564;2023-08-07T01:07:20;4.13;;;3.20;;
15230;SDS011;32569;51.762;8.564;2023-08-07T01:09:47;4.20;;;3.20;;
15230;SDS011;32569;51.762;8.564;2023-08-07T01:12:15;4.53;;;3.33;;
15230;SDS011;32569;51.762;8.564;2023-08-07T01:14:48;3.80;;;3.30;;
15230;SDS011;32569;51.762;8.564;2023-08-07T01:17:19;4.60;;;4.10;;
15230;SDS011;32569;51.762;8.564;2023-08-07T01:19:51;3.73;;;3.43;;
15230;SDS011;32569;51.762;8.564;2023-08-07T01:22:22;5.63;;;3.93;;
15230;SDS011;32569;51.762;8.564;2023-08-07T01:24:50;4.50;;;3.13;;
15230;SDS011;32569;51.762;8.564;2023-08-07T01:27:35;5.43;;;3.50;;
15230;SDS011;32569;51.762;8.564;2023-08-07T01:30:09;3.90;;;3.07;;
15230;SDS011;32569;51.762;8.564;2023-08-07T01:32:43;3.53;;;3.23;;
15230;SDS011;32569;51.762;8.564;2023-08-07T01:35:17;4.00;;;2.70;;
15230;SDS011;32569;51.762;8.564;2023-08-07T01:37:54;2.90;;;2.70;;
15230;SDS011;32569;51.762;8.564;2023-08-07T01:40:22;3.23;;;2.63;;
15230;SDS011;32569;51.762;8.564;2023-08-07T01:42:52;3.37;;;3.03;;
15230;SDS011;32569;51.762;8.564;2023-08-07T01:45:23;4.37;;;2.80;;
15230;SDS011;32569;51.762;8.564;2023-08-07T01:47:56;4.93;;;3.17;;
15230;SDS011;32569;51.762;8.564;2023-08-07T01:50:23;4.93;;;2.90;;
15230;SDS011;32569;51.762;8.564;2023-08-07T01:52:52;4.13;;;3.20;;
15230;SDS011;32569;51.762;8.564;2023-08-07T01:55:19;3.93;;;3.60;;
15230;SDS011;32569;51.762;8.564;2023-08-07T01:57:47;4.53;;;3.17;;
15230;SDS011;32569;51.762;8.564;2023-08-07T02:00:14;3.23;;;3.03;;
15230;SDS011;32569;51.762;8.564;2023-08-07T02:02:40;3.47;;;3.17;;
15230;SDS011;32569;51.762;8.564;2023-08-07T02:05:07;4.87;;;3.33;;
15230;SDS011;32569;51.762;8.564;2023-08-07T02:07:34;3.73;;;3.43;;
15230;SDS011;32569;51.762;8.564;2023-08-07T02:10:02;3.03;;;2.80;;
15230;SDS011;32569;51.762;8.564;2023-08-07T02:12:29;4.33;;;3.57;;
15230;SDS011;32569;51.762;8.564;2023-08-07T02:14:57;3.27;;;2.90;;
15230;SDS011;32569;51.762;8.564;2023-08-07T02:17:27;3.50;;;3.20;;
15230;SDS011;32569;51.762;8.564;2023-08-07T02:19:55;3.50;;;3.20;;
15230;SDS011;32569;51.762;8.564;2023-08-07T02:22:21;3.13;;;2.70;;
15230;SDS011;32569;51.762;8.564;2023-08-07T02:24:48;3.27;;;2.83;;
15230;SDS011;32569;51.762;8.564;2023-08-07T02:27:19;3.53;;;3.23;;
15230;SDS011;32569;51.762;8.564;2023-08-07T02:29:48;4.47;;;3.50;;
15230;SDS011;32569;51.762;8.564;2023-08-07T02:32:16;4.10;;;3.43;;
15230;SDS011;32569;51.762;8.564;2023-08-07T02:34:44;3.80;;;3.47;;
15230;SDS011;32569;51.762;8.564;2023-08-07T02:37:11;3.53;;;3.23;;
15230;SDS011;32569;51.762;8.564;2023-08-07T02:39:38;3.67;;;3.37;;
15230;SDS011;32569;51.762;8.564;2023-08-07T02:42:05;3.77;;;3.33;;
15230;SDS011;32569;51.762;8.564;2023-08-07T02:44:33;3.67;;;3.00;;
15230;SDS011;32569;51.762;8.564;2023-08-07T02:47:00;4.50;;;3.30;;
15230;SDS011;32569;51.762;8.564;2023-08-07T02:49:30;4.03;;;3.43;;
15230;SDS011;32569;51.762;8.564;2023-08-07T02:51:56;5.17;;;3.37;;
15230;SDS011;32569;51.762;8.564;2023-08-07T02:54:23;3.70;;;3.23;;
15230;SDS011;32569;51.762;8.564;2023-08-07T02:56:50;5.40;;;3.43;;
15230;SDS011;32569;51.762;8.564;2023-08-07T02:59:17;3.70;;;3.40;;
15230;SDS011;32569;51.762;8.564;2023-08-07T03:01:45;3.97;;;3.50;;
15230;SDS011;32569;51.762;8.564;2023-08-07T03:04:11;5.33;;;3.60;;
15230;SDS011;32569;51.762;8.564;2023-08-07T03:06:38;4.23;;;3.83;;
15230;SDS011;32569;51.762;8.564;2023-08-07T03:09:05;4.50;;;4.10;;
15230;SDS011;32569;51.762;8.564;2023-08-07T03:11:31;4.53;;;4.13;;
15230;SDS011;32569;51.762;8.564;2023-08-07T03:13:58;4.23;;;3.93;;
15230;SDS011;32569;51.762;8.564;2023-08-07T03:16:25;4.57;;;4.17;;
15230;SDS011;32569;51.762;8.564;2023-08-07T03:18:56;5.83;;;4.33;;
15230;SDS011;32569;51.762;8.564;2023-08-07T03:21:23;6.20;;;4.73;;
15230;SDS011;32569;51.762;8.564;2023-08-07T03:23:50;5.63;;;4.87;;
15230;SDS011;32569;51.762;8.564;2023-08-07T03:26:17;5.90;;;5.30;;
15230;SDS011;32569;51.762;8.564;2023-08-07T03:28:43;8.07;;;5.73;;
15230;SDS011;32569;51.762;8.564;2023-08-07T03:31:11;7.80;;;5.93;;
15230;SDS011;32569;51.762;8.564;2023-08-07T03:33:38;6.47;;;5.83;;
15230;SDS011;32569;51.762;8.564;2023-08-07T03:36:06;7.47;;;5.27;;
15230;SDS011;32569;51.762;8.564;2023-08-07T03:38:33;6.73;;;5.53;;
15230;SDS011;32569;51.762;8.564;2023-08-07T03:41:03;6.23;;;5.07;;
15230;SDS011;32569;51.762;8.564;2023-08-07T03:43:29;6.30;;;5.70;;
15230;SDS011;32569;51.762;8.564;2023-08-07T03:45:56;6.53;;;5.87;;
15230;SDS011;32569;51.762;8.564;2023-08-07T03:48:23;7.23;;;5.50;;
15230;SDS011;32569;51.762;8.564;2023-08-07T03:50:50;6.40;;;4.83;;
15230;SDS011;32569;51.762;8.564;2023-08-07T03:53:18;5.93;;;4.90;;
15230;SDS011;32569;51.762;8.564;2023-08-07T03:55:50;5.30;;;4.80;;
15230;SDS011;32569;51.762;8.564;2023-08-07T03:58:17;5.90;;;4.60;;
15230;SDS011;32569;51.762;8.564;2023-08-07T04:00:47;4.87;;;4.40;;
15230;SDS011;32569;51.762;8.564;2023-08-07T04:03:16;4.20;;;3.90;;
15230;SDS011;32569;51.762;8.564;2023-08-07T04:05:43;5.70;;;4.80;;
15230;SDS011;32569;51.762;8.564;2023-08-07T04:08:09;5.20;;;4.73;;
15230;SDS011;32569;51.762;8.564;2023-08-07T04:10:37;5.60;;;3.77;;
15230;SDS011;32569;51.762;8.564;2023-08-07T04:13:04;6.27;;;3.33;;
15230;SDS011;32569;51.762;8.564;2023-08-07T04:15:31;5.13;;;3.03;;
15230;SDS011;32569;51.762;8.564;2023-08-07T04:17:57;3.80;;;2.87;;
15230;SDS011;32569;51.762;8.564;2023-08-07T04:20:24;2.87;;;2.60;;
15230;SDS011;32569;51.762;8.564;2023-08-07T04:22:51;2.50;;;2.30;;
15230;SDS011;32569;51.762;8.564;2023-08-07T04:25:17;3.00;;;2.40;;
15230;SDS011;32569;51.762;8.564;2023-08-07T04:27:45;2.47;;;2.27;;
15230;SDS011;32569;51.762;8.564;2023-08-07T04:30:12;2.30;;;2.00;;
15230;SDS011;32569;51.762;8.564;2023-08-07T04:32:39;2.20;;;2.07;;
15230;SDS011;32569;51.762;8.564;2023-08-07T04:35:06;2.63;;;2.43;;
15230;SDS011;32569;51.762;8.564;2023-08-07T04:37:33;1.97;;;1.80;;
15230;SDS011;32569;51.762;8.564;2023-08-07T04:40:00;2.50;;;1.90;;
15230;SDS011;32569;51.762;8.564;2023-08-07T04:42:26;2.10;;;1.90;;
15230;SDS011;32569;51.762;8.564;2023-08-07T04:44:55;2.00;;;1.70;;
15230;SDS011;32569;51.762;8.564;2023-08-07T04:47:21;2.13;;;2.00;;
15230;SDS011;32569;51.762;8.564;2023-08-07T04:49:48;1.70;;;1.60;;
15230;SDS011;32569;51.762;8.564;2023-08-07T04:52:15;2.07;;;1.60;;
15230;SDS011;32569;51.762;8.564;2023-08-07T04:54:41;3.23;;;1.80;;
15230;SDS011;32569;51.762;8.564;2023-08-07T04:57:08;1.50;;;1.40;;
15230;SDS011;32569;51.762;8.564;2023-08-07T04:59:35;3.30;;;1.70;;
15230;SDS011;32569;51.762;8.564;2023-08-07T05:02:03;1.80;;;1.70;;
15230;SDS011;32569;51.762;8.564;2023-08-07T05:04:30;3.20;;;1.93;;
15230;SDS011;32569;51.762;8.564;2023-08-07T05:06:57;2.93;;;1.80;;
15230;SDS011;32569;51.762;8.564;2023-08-07T05:09:24;3.27;;;1.80;;
15230;SDS011;32569;51.762;8.564;2023-08-07T05:11:50;2.53;;;1.93;;
15230;SDS011;32569;51.762;8.564;2023-08-07T05:14:17;3.23;;;2.50;;
15230;SDS011;32569;51.762;8.564;2023-08-07T05:16:44;2.27;;;2.17;;
15230;SDS011;32569;51.762;8.564;2023-08-07T05:19:12;2.37;;;2.17;;
15230;SDS011;32569;51.762;8.564;2023-08-07T05:21:39;2.20;;;2.00;;
15230;SDS011;32569;51.762;8.564;2023-08-07T05:24:05;2.10;;;1.90;;
15230;SDS011;32569;51.762;8.564;2023-08-07T05:26:32;2.70;;;2.43;;
15230;SDS011;32569;51.762;8.564;2023-08-07T05:28:59;2.87;;;2.03;;
15230;SDS011;32569;51.762;8.564;2023-08-07T05:31:25;1.93;;;1.83;;
15230;SDS011;32569;51.762;8.564;2023-08-07T05:33:52;2.10;;;1.90;;
15230;SDS011;32569;51.762;8.564;2023-08-07T05:36:20;2.03;;;1.90;;
15230;SDS011;32569;51.762;8.564;2023-08-07T05:38:47;1.80;;;1.70;;
15230;SDS011;32569;51.762;8.564;2023-08-07T05:41:13;1.87;;;1.70;;
15230;SDS011;32569;51.762;8.564;2023-08-07T05:43:41;2.20;;;2.10;;
15230;SDS011;32569;51.762;8.564;2023-08-07T05:46:08;2.53;;;2.33;;
15230;SDS011;32569;51.762;8.564;2023-08-07T05:48:34;2.60;;;2.40;;
15230;SDS011;32569;51.762;8.564;2023-08-07T05:51:01;3.87;;;2.40;;
15230;SDS011;32569;51.762;8.564;2023-08-07T05:53:29;5.00;;;2.33;;
15230;SDS011;32569;51.762;8.564;2023-08-07T05:55:56;2.73;;;1.60;;
15230;SDS011;32569;51.762;8.564;2023-08-07T05:58:23;3.00;;;2.07;;
15230;SDS011;32569;51.762;8.564;2023-08-07T06:00:49;2.60;;;1.50;;
15230;SDS011;32569;51.762;8.564;2023-08-07T06:03:16;2.43;;;1.77;;
15230;SDS011;32569;51.762;8.564;2023-08-07T06:05:43;2.03;;;1.57;;
15230;SDS011;32569;51.762;8.564;2023-08-07T06:08:10;1.50;;;1.40;;
15230;SDS011;32569;51.762;8.564;2023-08-07T06:10:38;3.67;;;1.70;;
15230;SDS011;32569;51.762;8.564;2023-08-07T06:13:05;1.63;;;1.37;;
15230;SDS011;32569;51.762;8.564;2023-08-07T06:15:33;1.67;;;1.50;;
15230;SDS011;32569;51.762;8.564;2023-08-07T06:18:00;1.30;;;1.23;;
15230;SDS011;32569;51.762;8.564;2023-08-07T06:20:26;1.50;;;1.40;;
15230;SDS011;32569;51.762;8.564;2023-08-07T06:22:53;1.30;;;1.20;;
15230;SDS011;32569;51.762;8.564;2023-08-07T06:25:20;1.40;;;1.30;;
15230;SDS011;32569;51.762;8.564;2023-08-07T06:27:50;1.47;;;1.30;;
15230;SDS011;32569;51.762;8.564;2023-08-07T06:30:16;2.63;;;1.50;;
15230;SDS011;32569;51.762;8.564;2023-08-07T06:32:43;1.40;;;1.30;;
15230;SDS011;32569;51.762;8.564;2023-08-07T06:35:10;1.20;;;1.10;;
15230;SDS011;32569;51.762;8.564;2023-08-07T06:37:37;1.43;;;1.33;;
15230;SDS011;32569;51.762;8.564;2023-08-07T06:40:04;1.87;;;1.10;;
15230;SDS011;32569;51.762;8.564;2023-08-07T06:42:31;1.20;;;1.10;;
15230;SDS011;32569;51.762;8.564;2023-08-07T06:44:59;1.20;;;1.10;;
15230;SDS011;32569;51.762;8.564;2023-08-07T06:47:26;2.00;;;1.20;;
15230;SDS011;32569;51.762;8.564;2023-08-07T06:49:53;2.90;;;1.50;;
15230;SDS011;32569;51.762;8.564;2023-08-07T06:52:19;4.10;;;1.63;;
15230;SDS011;32569;51.762;8.564;2023-08-07T06:54:46;2.63;;;1.23;;
15230;SDS011;32569;51.762;8.564;2023-08-07T06:57:13;1.83;;;1.40;;
15230;SDS011;32569;51.762;8.564;2023-08-07T06:59:40;2.80;;;1.53;;
15230;SDS011;32569;51.762;8.564;2023-08-07T07:02:08;3.13;;;1.57;;
15230;SDS011;32569;51.762;8.564;2023-08-07T07:04:35;2.90;;;2.00;;
15230;SDS011;32569;51.762;8.564;2023-08-07T07:07:02;2.70;;;1.73;;
15230;SDS011;32569;51.762;8.564;2023-08-07T07:09:29;3.83;;;1.70;;
15230;SDS011;32569;51.762;8.564;2023-08-07T07:11:57;3.53;;;2.00;;
15230;SDS011;32569;51.762;8.564;2023-08-07T07:14:23;2.20;;;2.00;;
15230;SDS011;32569;51.762;8.564;2023-08-07T07:16:50;4.63;;;2.30;;
15230;SDS011;32569;51.762;8.564;2023-08-07T07:19:18;3.10;;;2.10;;
15230;SDS011;32569;51.762;8.564;2023-08-07T07:21:45;3.17;;;2.10;;
15230;SDS011;32569;51.762;8.564;2023-08-07T07:24:11;2.67;;;2.00;;
15230;SDS011;32569;51.762;8.564;2023-08-07T07:26:38;4.03;;;2.33;;
15230;SDS011;32569;51.762;8.564;2023-08-07T07:29:05;3.23;;;2.10;;
15230;SDS011;32569;51.762;8.564;2023-08-07T07:31:32;2.97;;;2.27;;
15230;SDS011;32569;51.762;8.564;2023-08-07T07:33:58;2.83;;;2.37;;
15230;SDS011;32569;51.762;8.564;2023-08-07T07:36:27;3.23;;;2.37;;
15230;SDS011;32569;51.762;8.564;2023-08-07T07:38:54;4.20;;;2.67;;
15230;SDS011;32569;51.762;8.564;2023-08-07T07:41:21;2.07;;;1.93;;
15230;SDS011;32569;51.762;8.564;2023-08-07T07:43:48;3.33;;;2.27;;
15230;SDS011;32569;51.762;8.564;2023-08-07T07:46:15;3.40;;;2.40;;
15230;SDS011;32569;51.762;8.564;2023-08-07T07:48:42;5.57;;;4.00;;
15230;SDS011;32569;51.762;8.564;2023-08-07T07:51:09;3.03;;;2.50;;
15230;SDS011;32569;51.762;8.564;2023-08-07T07:53:37;2.73;;;2.30;;
15230;SDS011;32569;51.762;8.564;2023-08-07T07:56:04;3.83;;;2.50;;
15230;SDS011;32569;51.762;8.564;2023-08-07T07:58:30;3.83;;;2.57;;
15230;SDS011;32569;51.762;8.564;2023-08-07T08:00:57;5.73;;;2.90;;
15230;SDS011;32569;51.762;8.564;2023-08-07T08:03:24;4.70;;;2.27;;
15230;SDS011;32569;51.762;8.564;2023-08-07T08:05:51;3.00;;;2.60;;
15230;SDS011;32569;51.762;8.564;2023-08-07T08:08:18;3.57;;;2.33;;
15230;SDS011;32569;51.762;8.564;2023-08-07T08:10:46;3.27;;;2.50;;
15230;SDS011;32569;51.762;8.564;2023-08-07T08:13:13;4.77;;;2.87;;
15230;SDS011;32569;51.762;8.564;2023-08-07T08:15:40;4.03;;;2.60;;
15230;SDS011;32569;51.762;8.564;2023-08-07T08:18:06;4.40;;;2.30;;
15230;SDS011;32569;51.762;8.564;2023-08-07T08:20:33;3.67;;;2.73;;
15230;SDS011;32569;51.762;8.564;2023-08-07T08:23:00;5.10;;;2.47;;
15230;SDS011;32569;51.762;8.564;2023-08-07T08:25:26;3.23;;;2.53;;
15230;SDS011;32569;51.762;8.564;2023-08-07T08:27:54;3.37;;;2.50;;
15230;SDS011;32569;51.762;8.564;2023-08-07T08:30:21;3.43;;;2.57;;
15230;SDS011;32569;51.762;8.564;2023-08-07T08:32:48;2.83;;;2.30;;
15230;SDS011;32569;51.762;8.564;2023-08-07T08:35:15;5.27;;;2.60;;
15230;SDS011;32569;51.762;8.564;2023-08-07T08:37:42;4.97;;;2.63;;
15230;SDS011;32569;51.762;8.564;2023-08-07T08:40:08;3.57;;;2.37;;
15230;SDS011;32569;51.762;8.564;2023-08-07T08:42:41;5.40;;;2.70;;
15230;SDS011;32569;51.762;8.564;2023-08-07T08:45:12;4.77;;;2.43;;
15230;SDS011;32569;51.762;8.564;2023-08-07T08:47:39;4.13;;;2.90;;
15230;SDS011;32569;51.762;8.564;2023-08-07T08:50:09;5.80;;;2.70;;
15230;SDS011;32569;51.762;8.564;2023-08-07T08:52:38;3.43;;;2.60;;
15230;SDS011;32569;51.762;8.564;2023-08-07T08:55:07;4.27;;;2.90;;
15230;SDS011;32569;51.762;8.564;2023-08-07T08:57:34;3.20;;;2.90;;
15230;SDS011;32569;51.762;8.564;2023-08-07T09:00:02;4.30;;;3.10;;
15230;SDS011;32569;51.762;8.564;2023-08-07T09:02:42;6.30;;;2.83;;
15230;SDS011;32569;51.762;8.564;2023-08-07T09:05:10;5.90;;;3.17;;
15230;SDS011;32569;51.762;8.564;2023-08-07T09:07:36;5.67;;;3.77;;
15230;SDS011;32569;51.762;8.564;2023-08-07T09:10:04;6.73;;;3.17;;
15230;SDS011;32569;51.762;8.564;2023-08-07T09:12:32;5.03;;;3.53;;
15230;SDS011;32569;51.762;8.564;2023-08-07T09:15:00;6.57;;;3.40;;
15230;SDS011;32569;51.762;8.564;2023-08-07T09:17:29;5.97;;;3.30;;
15230;SDS011;32569;51.762;8.564;2023-08-07T09:20:00;8.57;;;3.87;;
15230;SDS011;32569;51.762;8.564;2023-08-07T09:22:29;4.30;;;3.10;;
15230;SDS011;32569;51.762;8.564;2023-08-07T09:24:56;6.93;;;3.23;;
15230;SDS011;32569;51.762;8.564;2023-08-07T09:27:25;6.67;;;2.90;;
15230;SDS011;32569;51.762;8.564;2023-08-07T09:29:51;5.07;;;3.07;;
15230;SDS011;32569;51.762;8.564;2023-08-07T09:32:21;6.07;;;3.00;;
15230;SDS011;32569;51.762;8.564;2023-08-07T09:34:49;4.53;;;2.97;;
15230;SDS011;32569;51.762;8.564;2023-08-07T09:37:18;4.30;;;2.97;;
15230;SDS011;32569;51.762;8.564;2023-08-07T09:39:45;4.00;;;2.50;;
15230;SDS011;32569;51.762;8.564;2023-08-07T09:42:12;4.20;;;3.10;;
15230;SDS011;32569;51.762;8.564;2023-08-07T09:44:40;4.77;;;2.83;;
15230;SDS011;32569;51.762;8.564;2023-08-07T09:47:11;7.10;;;3.63;;
15230;SDS011;32569;51.762;8.564;2023-08-07T09:49:39;6.63;;;4.40;;
15230;SDS011;32569;51.762;8.564;2023-08-07T09:52:06;7.23;;;2.57;;
15230;SDS011;32569;51.762;8.564;2023-08-07T09:54:36;4.67;;;2.30;;
15230;SDS011;32569;51.762;8.564;2023-08-07T09:57:03;4.60;;;2.60;;
15230;SDS011;32569;51.762;8.564;2023-08-07T09:59:31;3.67;;;2.03;;
15230;SDS011;32569;51.762;8.564;2023-08-07T10:01:59;4.63;;;2.10;;
15230;SDS011;32569;51.762;8.564;2023-08-07T10:04:27;3.93;;;2.57;;
15230;SDS011;32569;51.762;8.564;2023-08-07T10:06:54;2.03;;;1.53;;
15230;SDS011;32569;51.762;8.564;2023-08-07T10:09:22;3.07;;;2.10;;
15230;SDS011;32569;51.762;8.564;2023-08-07T10:11:50;4.60;;;1.73;;
15230;SDS011;32569;51.762;8.564;2023-08-07T10:14:17;5.30;;;2.30;;
15230;SDS011;32569;51.762;8.564;2023-08-07T10:16:45;2.90;;;2.30;;
15230;SDS011;32569;51.762;8.564;2023-08-07T10:19:12;3.47;;;1.97;;
15230;SDS011;32569;51.762;8.564;2023-08-07T10:21:39;3.80;;;2.43;;
15230;SDS011;32569;51.762;8.564;2023-08-07T10:24:07;2.57;;;1.97;;
15230;SDS011;32569;51.762;8.564;2023-08-07T10:26:35;5.07;;;2.20;;
15230;SDS011;32569;51.762;8.564;2023-08-07T10:29:06;4.87;;;2.17;;
15230;SDS011;32569;51.762;8.564;2023-08-07T10:31:37;4.33;;;2.40;;
15230;SDS011;32569;51.762;8.564;2023-08-07T10:34:06;5.13;;;2.17;;
15230;SDS011;32569;51.762;8.564;2023-08-07T10:36:33;4.73;;;2.50;;
15230;SDS011;32569;51.762;8.564;2023-08-07T10:39:07;4.77;;;2.40;;
15230;SDS011;32569;51.762;8.564;2023-08-07T10:41:38;4.13;;;2.33;;
15230;SDS011;32569;51.762;8.564;2023-08-07T10:44:17;6.97;;;2.50;;
15230;SDS011;32569;51.762;8.564;2023-08-07T10:46:49;4.87;;;2.37;;
15230;SDS011;32569;51.762;8.564;2023-08-07T10:49:29;3.33;;;2.17;;
15230;SDS011;32569;51.762;8.564;2023-08-07T10:51:58;7.20;;;2.40;;
15230;SDS011;32569;51.762;8.564;2023-08-07T10:54:25;4.47;;;2.43;;
15230;SDS011;32569;51.762;8.564;2023-08-07T10:56:52;4.03;;;2.43;;
15230;SDS011;32569;51.762;8.564;2023-08-07T10:59:21;6.93;;;3.00;;
15230;SDS011;32569;51.762;8.564;2023-08-07T11:01:50;3.63;;;2.40;;
15230;SDS011;32569;51.762;8.564;2023-08-07T11:04:17;7.83;;;2.50;;
15230;SDS011;32569;51.762;8.564;2023-08-07T11:06:46;4.40;;;2.40;;
15230;SDS011;32569;51.762;8.564;2023-08-07T11:09:14;4.50;;;2.00;;
15230;SDS011;32569;51.762;8.564;2023-08-07T11:11:41;6.23;;;2.10;;
15230;SDS011;32569;51.762;8.564;2023-08-07T11:14:11;3.60;;;2.10;;
15230;SDS011;32569;51.762;8.564;2023-08-07T11:16:40;4.33;;;2.17;;
15230;SDS011;32569;51.762;8.564;2023-08-07T11:19:07;9.03;;;2.33;;
15230;SDS011;32569;51.762;8.564;2023-08-07T11:21:35;4.60;;;2.47;;
15230;SDS011;32569;51.762;8.564;2023-08-07T11:24:03;5.97;;;2.87;;
15230;SDS011;32569;51.762;8.564;2023-08-07T11:26:29;9.00;;;2.60;;
15230;SDS011;32569;51.762;8.564;2023-08-07T11:28:57;6.30;;;2.30;;
15230;SDS011;32569;51.762;8.564;2023-08-07T11:31:24;5.70;;;2.43;;
15230;SDS011;32569;51.762;8.564;2023-08-07T11:33:54;7.13;;;2.73;;
15230;SDS011;32569;51.762;8.564;2023-08-07T11:36:24;5.40;;;2.40;;
15230;SDS011;32569;51.762;8.564;2023-08-07T11:38:51;4.83;;;2.87;;
15230;SDS011;32569;51.762;8.564;2023-08-07T11:41:18;6.90;;;2.93;;
15230;SDS011;32569;51.762;8.564;2023-08-07T11:43:45;6.87;;;2.80;;
15230;SDS011;32569;51.762;8.564;2023-08-07T11:46:12;6.47;;;2.83;;
15230;SDS011;32569;51.762;8.564;2023-08-07T11:48:41;6.17;;;2.73;;
15230;SDS011;32569;51.762;8.564;2023-08-07T11:51:10;6.20;;;2.80;;
15230;SDS011;32569;51.762;8.564;2023-08-07T11:53:38;4.77;;;2.53;;
15230;SDS011;32569;51.762;8.564;2023-08-07T11:56:06;6.23;;;2.57;;
15230;SDS011;32569;51.762;8.564;2023-08-07T11:58:36;8.70;;;3.17;;
15230;SDS011;32569;51.762;8.564;2023-08-07T12:01:03;3.80;;;2.40;;
15230;SDS011;32569;51.762;8.564;2023-08-07T12:03:31;5.30;;;2.43;;
15230;SDS011;32569;51.762;8.564;2023-08-07T12:06:02;4.10;;;2.40;;
15230;SDS011;32569;51.762;8.564;2023-08-07T12:08:35;5.80;;;2.50;;
15230;SDS011;32569;51.762;8.564;2023-08-07T12:11:03;3.77;;;2.30;;
15230;SDS011;32569;51.762;8.564;2023-08-07T12:13:31;5.07;;;2.47;;
15230;SDS011;32569;51.762;8.564;2023-08-07T12:16:00;9.53;;;2.77;;
15230;SDS011;32569;51.762;8.564;2023-08-07T12:18:29;5.00;;;2.63;;
15230;SDS011;32569;51.762;8.564;2023-08-07T12:20:56;6.27;;;2.70;;
15230;SDS011;32569;51.762;8.564;2023-08-07T12:23:24;6.60;;;2.53;;
15230;SDS011;32569;51.762;8.564;2023-08-07T12:25:53;4.60;;;2.97;;
15230;SDS011;32569;51.762;8.564;2023-08-07T12:28:19;6.87;;;2.87;;
15230;SDS011;32569;51.762;8.564;2023-08-07T12:30:47;6.43;;;2.77;;
15230;SDS011;32569;51.762;8.564;2023-08-07T12:33:14;6.30;;;3.20;;
15230;SDS011;32569;51.762;8.564;2023-08-07T12:35:41;6.50;;;3.17;;
15230;SDS011;32569;51.762;8.564;2023-08-07T12:38:08;5.40;;;2.97;;
15230;SDS011;32569;51.762;8.564;2023-08-07T12:40:35;4.27;;;2.70;;
15230;SDS011;32569;51.762;8.564;2023-08-07T12:43:04;7.53;;;2.80;;
15230;SDS011;32569;51.762;8.564;2023-08-07T12:45:31;8.70;;;3.20;;
15230;SDS011;32569;51.762;8.564;2023-08-07T12:47:58;4.53;;;2.93;;
15230;SDS011;32569;51.762;8.564;2023-08-07T12:50:25;5.87;;;3.27;;
15230;SDS011;32569;51.762;8.564;2023-08-07T12:52:52;3.83;;;2.50;;
15230;SDS011;32569;51.762;8.564;2023-08-07T12:55:18;6.20;;;3.10;;
15230;SDS011;32569;51.762;8.564;2023-08-07T12:57:45;3.87;;;2.50;;
15230;SDS011;32569;51.762;8.564;2023-08-07T13:00:15;6.90;;;3.40;;
15230;SDS011;32569;51.762;8.564;2023-08-07T13:02:43;7.27;;;3.67;;
15230;SDS011;32569;51.762;8.564;2023-08-07T13:05:11;6.07;;;2.40;;
15230;SDS011;32569;51.762;8.564;2023-08-07T13:07:39;4.53;;;2.10;;
15230;SDS011;32569;51.762;8.564;2023-08-07T13:10:07;4.60;;;2.83;;
15230;SDS011;32569;51.762;8.564;2023-08-07T13:12:35;4.10;;;2.50;;
15230;SDS011;32569;51.762;8.564;2023-08-07T13:15:03;6.93;;;2.70;;
15230;SDS011;32569;51.762;8.564;2023-08-07T13:17:33;5.00;;;2.43;;
15230;SDS011;32569;51.762;8.564;2023-08-07T13:20:00;5.80;;;2.70;;
15230;SDS011;32569;51.762;8.564;2023-08-07T13:22:32;4.03;;;2.37;;
15230;SDS011;32569;51.762;8.564;2023-08-07T13:24:59;3.73;;;2.10;;
15230;SDS011;32569;51.762;8.564;2023-08-07T13:27:28;5.43;;;2.43;;
15230;SDS011;32569;51.762;8.564;2023-08-07T13:29:54;4.17;;;1.93;;
15230;SDS011;32569;51.762;8.564;2023-08-07T13:32:21;3.97;;;2.20;;
15230;SDS011;32569;51.762;8.564;2023-08-07T13:34:52;8.90;;;2.90;;
15230;SDS011;32569;51.762;8.564;2023-08-07T13:37:19;5.20;;;2.10;;
15230;SDS011;32569;51.762;8.564;2023-08-07T13:39:46;3.00;;;1.80;;
15230;SDS011;32569;51.762;8.564;2023-08-07T13:42:15;4.63;;;2.00;;
15230;SDS011;32569;51.762;8.564;2023-08-07T13:44:42;4.30;;;2.23;;
15230;SDS011;32569;51.762;8.564;2023-08-07T13:47:09;3.43;;;1.83;;
15230;SDS011;32569;51.762;8.564;2023-08-07T13:49:36;3.73;;;2.20;;
15230;SDS011;32569;51.762;8.564;2023-08-07T13:52:05;4.63;;;2.23;;
15230;SDS011;32569;51.762;8.564;2023-08-07T13:54:38;4.20;;;2.23;;
15230;SDS011;32569;51.762;8.564;2023-08-07T13:57:05;4.20;;;1.90;;
15230;SDS011;32569;51.762;8.564;2023-08-07T13:59:32;5.00;;;1.97;;
15230;SDS011;32569;51.762;8.564;2023-08-07T14:01:59;3.87;;;2.23;;
15230;SDS011;32569;51.762;8.564;2023-08-07T14:04:25;2.30;;;1.80;;
15230;SDS011;32569;51.762;8.564;2023-08-07T14:06:52;3.70;;;2.07;;
15230;SDS011;32569;51.762;8.564;2023-08-07T14:09:20;5.40;;;2.10;;
15230;SDS011;32569;51.762;8.564;2023-08-07T14:11:47;4.33;;;2.53;;
15230;SDS011;32569;51.762;8.564;2023-08-07T14:14:17;4.10;;;2.00;;
15230;SDS011;32569;51.762;8.564;2023-08-07T14:16:43;2.40;;;2.17;;
15230;SDS011;32569;51.762;8.564;2023-08-07T14:19:10;4.53;;;2.23;;
15230;SDS011;32569;51.762;8.564;2023-08-07T14:21:37;6.53;;;2.20;;
15230;SDS011;32569;51.762;8.564;2023-08-07T14:24:04;3.23;;;2.10;;
15230;SDS011;32569;51.762;8.564;2023-08-07T14:26:33;5.53;;;2.40;;
15230;SDS011;32569;51.762;8.564;2023-08-07T14:28:59;6.80;;;2.47;;
15230;SDS011;32569;51.762;8.564;2023-08-07T14:31:26;3.40;;;1.80;;
15230;SDS011;32569;51.762;8.564;2023-08-07T14:33:53;4.07;;;2.10;;
15230;SDS011;32569;51.762;8.564;2023-08-07T14:36:19;4.63;;;2.37;;
15230;SDS011;32569;51.762;8.564;2023-08-07T14:38:46;3.53;;;2.10;;
15230;SDS011;32569;51.762;8.564;2023-08-07T14:41:13;3.97;;;2.30;;
15230;SDS011;32569;51.762;8.564;2023-08-07T14:43:41;4.80;;;1.87;;
15230;SDS011;32569;51.762;8.564;2023-08-07T14:46:11;6.80;;;2.03;;
15230;SDS011;32569;51.762;8.564;2023-08-07T14:48:37;4.03;;;2.10;;
15230;SDS011;32569;51.762;8.564;2023-08-07T14:51:04;3.60;;;2.17;;